createdAt,value
2023-06-04T00:02:02.855Z,30.64
2023-06-04T00:07:24.712Z,30.48
2023-06-04T00:12:46.975Z,30.63
2023-06-04T00:18:08.941Z,31.00
2023-06-04T00:23:30.770Z,30.54
2023-06-04T00:28:52.605Z,31.06
2023-06-04T00:34:14.537Z,31.04
2023-06-04T00:39:36.348Z,30.95
2023-06-04T00:44:59.597Z,30.92
2023-06-04T00:50:22.490Z,31.01
2023-06-04T00:55:44.415Z,31.24
2023-06-04T01:01:34.196Z,30.76
2023-06-04T01:06:59.852Z,30.98
2023-06-04T01:12:21.977Z,31.22
2023-06-04T01:17:52.957Z,30.74
2023-06-04T01:23:28.531Z,31.33
2023-06-04T01:28:52.228Z,31.25
2023-06-04T01:34:14.098Z,31.34
2023-06-04T01:39:36.025Z,31.27
2023-06-04T01:44:57.969Z,31.80
2023-06-04T01:50:20.553Z,31.78
2023-06-04T01:55:42.512Z,32.23
2023-06-04T02:01:06.291Z,31.80
2023-06-04T02:06:31.329Z,31.87
2023-06-04T02:11:53.172Z,32.13
2023-06-04T02:17:15.184Z,32.12
2023-06-04T02:22:37.163Z,32.37
2023-06-04T02:27:59.014Z,31.85
2023-06-04T02:33:21.972Z,32.10
2023-06-04T02:38:43.825Z,32.25
2023-06-04T02:44:05.677Z,32.26
2023-06-04T02:49:27.521Z,32.40
2023-06-04T02:54:49.721Z,32.24
2023-06-04T03:00:13.882Z,32.06
2023-06-04T03:05:38.134Z,31.97
2023-06-04T03:11:00.026Z,32.17
2023-06-04T03:16:22.279Z,32.18
2023-06-04T03:21:44.189Z,32.34
2023-06-04T03:27:07.179Z,32.04
2023-06-04T03:32:29.176Z,32.13
2023-06-04T03:37:51.230Z,32.03
2023-06-04T03:43:13.219Z,32.64
2023-06-04T03:48:35.061Z,32.66
2023-06-04T03:53:56.918Z,32.45
2023-06-04T03:59:18.912Z,32.69
2023-06-04T04:04:40.756Z,32.64
2023-06-04T04:10:03.140Z,32.94
2023-06-04T04:15:25.081Z,32.61
2023-06-04T04:20:47.855Z,32.77
2023-06-04T04:26:11.435Z,32.59
2023-06-04T04:31:33.453Z,32.78
2023-06-04T04:36:55.524Z,32.83
2023-06-04T04:42:17.359Z,32.64
2023-06-04T04:47:39.794Z,32.54
2023-06-04T04:53:02.947Z,32.58
2023-06-04T04:58:24.965Z,32.50
2023-06-04T05:03:46.915Z,32.62
2023-06-04T05:09:08.997Z,32.41
2023-06-04T05:14:30.922Z,32.33
2023-06-04T05:19:54.049Z,32.36
2023-06-04T05:25:16.268Z,32.39
2023-06-04T05:30:42.928Z,32.24
2023-06-04T05:36:05.045Z,32.33
2023-06-04T05:41:28.936Z,32.18
2023-06-04T05:46:51.665Z,32.54
2023-06-04T05:52:13.546Z,32.35
2023-06-04T05:57:35.494Z,32.46
2023-06-04T06:02:57.851Z,32.55
2023-06-04T06:08:20.081Z,32.14
2023-06-04T06:13:41.960Z,32.45
2023-06-04T06:19:04.202Z,31.99
2023-06-04T06:24:26.971Z,32.63
2023-06-04T06:29:48.854Z,32.60
2023-06-04T06:35:11.249Z,32.12
2023-06-04T06:40:33.107Z,32.57
2023-06-04T06:45:55.141Z,32.19
2023-06-04T06:51:17.244Z,32.49
2023-06-04T06:56:39.064Z,32.17
2023-06-04T07:02:00.923Z,32.17
2023-06-04T07:07:22.834Z,32.31
2023-06-04T07:12:44.698Z,31.77
2023-06-04T07:18:06.538Z,32.05
2023-06-04T07:23:28.937Z,32.06
2023-06-04T07:28:51.047Z,31.81
2023-06-04T07:34:12.901Z,31.79
2023-06-04T07:39:34.865Z,31.58
2023-06-04T07:44:56.744Z,31.38
2023-06-04T07:50:18.623Z,31.61
2023-06-04T07:55:40.487Z,31.74
2023-06-04T08:01:02.504Z,31.45
2023-06-04T08:06:25.907Z,31.84
2023-06-04T08:11:47.800Z,31.71
2023-06-04T08:17:09.664Z,31.72
2023-06-04T08:22:31.562Z,31.75
2023-06-04T08:27:53.452Z,31.93
2023-06-04T08:33:15.371Z,31.90
2023-06-04T08:38:37.557Z,31.88
2023-06-04T08:44:01.785Z,32.21
2023-06-04T08:49:26.067Z,31.93
2023-06-04T08:54:50.596Z,32.02
2023-06-04T09:00:13.844Z,31.96
2023-06-04T09:05:37.220Z,31.60
2023-06-04T09:10:59.355Z,31.78
2023-06-04T09:16:21.200Z,31.56
2023-06-04T09:21:53.706Z,31.50
2023-06-04T09:27:20.040Z,31.53
2023-06-04T09:32:42.075Z,31.27
2023-06-04T09:38:06.289Z,30.98
2023-06-04T09:43:28.156Z,31.29
2023-06-04T09:48:50.022Z,31.00
2023-06-04T09:54:12.062Z,31.10
2023-06-04T09:59:41.145Z,31.10
2023-06-04T10:05:03.821Z,31.11
2023-06-04T10:10:28.262Z,30.59
2023-06-04T10:15:51.894Z,31.03
2023-06-04T10:21:17.664Z,30.46
2023-06-04T10:26:45.761Z,30.76
2023-06-04T10:32:07.778Z,30.60
2023-06-04T10:37:30.875Z,30.80
2023-06-04T10:42:54.647Z,30.68
2023-06-04T10:48:16.614Z,30.44
2023-06-04T10:53:38.905Z,30.37
2023-06-04T10:59:01.791Z,30.24
2023-06-04T11:04:25.077Z,30.48
2023-06-04T11:09:51.352Z,30.34
2023-06-04T11:15:15.879Z,30.32
2023-06-04T11:20:37.779Z,29.96
2023-06-04T11:26:00.182Z,30.28
2023-06-04T11:31:22.698Z,30.01
2023-06-04T11:36:44.599Z,30.00
2023-06-04T11:42:09.298Z,30.20
2023-06-04T11:47:31.494Z,29.83
2023-06-04T11:52:54.538Z,29.73
2023-06-04T11:58:17.076Z,29.81
2023-06-04T12:03:43.089Z,29.80
2023-06-04T12:09:05.743Z,29.49
2023-06-04T12:14:29.340Z,29.45
2023-06-04T12:19:53.379Z,29.48
2023-06-04T12:25:27.108Z,29.53
2023-06-04T12:30:49.188Z,29.29
2023-06-04T12:36:11.481Z,29.39
2023-06-04T12:41:34.753Z,29.70
2023-06-04T12:46:56.845Z,29.58
2023-06-04T12:52:18.948Z,29.29
2023-06-04T12:57:40.802Z,28.99
2023-06-04T13:03:02.719Z,29.11
2023-06-04T13:08:25.192Z,29.28
2023-06-04T13:13:47.346Z,29.39
2023-06-04T13:19:09.923Z,29.25
2023-06-04T13:24:32.335Z,29.10
2023-06-04T13:29:54.559Z,28.99
2023-06-04T13:35:16.689Z,28.83
2023-06-04T13:40:38.569Z,28.62
2023-06-04T13:46:00.484Z,29.23
2023-06-04T13:51:22.403Z,29.08
2023-06-04T13:56:45.981Z,28.80
2023-06-04T14:02:08.823Z,28.99
2023-06-04T14:07:30.711Z,28.81
2023-06-04T14:12:52.607Z,29.02
2023-06-04T14:18:14.548Z,29.12
2023-06-04T14:23:36.653Z,28.79
2023-06-04T14:28:58.912Z,28.45
2023-06-04T14:34:21.100Z,28.32
2023-06-04T14:39:43.216Z,28.39
2023-06-04T14:45:05.543Z,28.73
2023-06-04T14:50:27.428Z,28.46
2023-06-04T14:55:49.567Z,28.34
2023-06-04T15:01:11.924Z,28.82
2023-06-04T15:06:34.052Z,28.55
2023-06-04T15:11:55.927Z,28.59
2023-06-04T15:17:17.771Z,28.34
2023-06-04T15:22:39.641Z,28.54
2023-06-04T15:28:01.765Z,28.70
2023-06-04T15:33:23.636Z,28.59
2023-06-04T15:38:45.846Z,28.53
2023-06-04T15:44:08.056Z,28.47
2023-06-04T15:49:30.761Z,28.79
2023-06-04T15:54:52.551Z,28.76
2023-06-04T16:00:14.675Z,29.01
2023-06-04T16:05:36.488Z,29.09
2023-06-04T16:10:58.661Z,29.23
2023-06-04T16:16:20.586Z,28.99
2023-06-04T16:21:42.763Z,29.35
2023-06-04T16:27:04.738Z,29.41
2023-06-04T16:32:26.610Z,29.30
2023-06-04T16:37:49.739Z,29.47
2023-06-04T16:43:11.710Z,29.80
2023-06-04T16:48:34.036Z,29.44
2023-06-04T16:53:55.903Z,29.84
2023-06-04T16:59:17.864Z,29.91
2023-06-04T17:04:39.800Z,30.05
2023-06-04T17:10:01.699Z,29.79
2023-06-04T17:15:23.540Z,30.05
2023-06-04T17:20:45.426Z,30.09
2023-06-04T17:26:08.035Z,30.02
2023-06-04T17:31:30.125Z,30.34
2023-06-04T17:36:52.205Z,30.14
2023-06-04T17:42:14.054Z,30.44
2023-06-04T17:47:36.329Z,30.17
2023-06-04T17:53:00.144Z,30.14
2023-06-04T17:58:22.264Z,30.05
2023-06-04T18:03:44.339Z,30.36
2023-06-04T18:09:07.544Z,30.35
2023-06-04T18:14:29.390Z,30.85
2023-06-04T18:19:52.653Z,30.29
2023-06-04T18:25:14.566Z,30.31
2023-06-04T18:30:36.649Z,30.62
2023-06-04T18:35:58.532Z,30.36
2023-06-04T18:41:20.501Z,30.62
2023-06-04T18:46:42.446Z,30.56
2023-06-04T18:52:04.516Z,30.63
2023-06-04T18:57:26.373Z,30.80
2023-06-04T19:02:48.333Z,30.82
2023-06-04T19:08:10.345Z,30.85
2023-06-04T19:13:32.218Z,30.96
2023-06-04T19:18:54.078Z,31.53
2023-06-04T19:24:16.295Z,31.39
2023-06-04T19:29:40.020Z,31.60
2023-06-04T19:35:02.076Z,31.76
2023-06-04T19:40:23.887Z,31.90
2023-06-04T19:45:50.683Z,32.25
2023-06-04T19:51:15.090Z,32.35
2023-06-04T19:56:38.549Z,32.27
2023-06-04T20:02:00.785Z,32.38
2023-06-04T20:07:22.958Z,32.09
2023-06-04T20:12:44.783Z,32.72
2023-06-04T20:18:07.628Z,32.74
2023-06-04T20:23:29.548Z,32.75
2023-06-04T20:28:53.947Z,32.76
2023-06-04T20:34:15.847Z,32.67
2023-06-04T20:39:40.813Z,32.77
2023-06-04T20:45:02.678Z,32.77
2023-06-04T20:50:24.527Z,32.82
2023-06-04T20:55:46.452Z,33.05
2023-06-04T21:01:08.559Z,33.21
2023-06-04T21:06:30.466Z,33.09
2023-06-04T21:11:52.345Z,33.35
2023-06-04T21:17:14.429Z,33.44
2023-06-04T21:22:36.377Z,33.04
2023-06-04T21:27:58.207Z,33.10
2023-06-04T21:33:20.021Z,33.37
2023-06-04T21:38:42.547Z,33.43
2023-06-04T21:44:04.444Z,33.75
2023-06-04T21:49:26.940Z,33.40
2023-06-04T21:54:48.785Z,33.34
2023-06-04T22:00:12.852Z,33.44
2023-06-04T22:05:34.790Z,33.69
2023-06-04T22:10:57.178Z,33.79
2023-06-04T22:16:19.069Z,33.55
2023-06-04T22:21:40.887Z,33.61
2023-06-04T22:27:02.737Z,33.63
2023-06-04T22:32:24.624Z,33.91
2023-06-04T22:37:46.528Z,33.90
2023-06-04T22:43:08.570Z,33.88
2023-06-04T22:48:30.436Z,34.05
2023-06-04T22:53:52.330Z,34.34
2023-06-04T22:59:14.173Z,34.10
2023-06-04T23:04:36.101Z,34.24
2023-06-04T23:09:58.008Z,33.93
2023-06-04T23:15:22.583Z,34.39
2023-06-04T23:20:44.476Z,33.85
2023-06-04T23:26:06.716Z,34.34
2023-06-04T23:31:28.838Z,34.30
2023-06-04T23:36:53.499Z,34.45
2023-06-04T23:42:15.416Z,34.39
2023-06-04T23:47:37.355Z,34.06
2023-06-04T23:52:59.205Z,34.30
2023-06-04T23:58:21.622Z,34.45
